createdAt,value
2022-11-12T00:00:40.128Z,19.80
2022-11-12T00:03:06.904Z,19.70
2022-11-12T00:05:34.232Z,19.80
2022-11-12T00:08:01.491Z,19.80
2022-11-12T00:10:28.306Z,19.80
2022-11-12T00:12:55.209Z,19.70
2022-11-12T00:15:21.990Z,19.70
2022-11-12T00:17:48.703Z,19.70
2022-11-12T00:20:15.691Z,19.70
2022-11-12T00:22:42.497Z,19.70
2022-11-12T00:25:09.324Z,19.70
2022-11-12T00:27:37.520Z,19.70
2022-11-12T00:30:05.603Z,19.70
2022-11-12T00:32:32.355Z,19.70
2022-11-12T00:35:02.486Z,19.70
2022-11-12T00:37:29.626Z,19.70
2022-11-12T00:39:56.330Z,19.70
2022-11-12T00:42:23.041Z,19.70
2022-11-12T00:44:50.035Z,19.70
2022-11-12T00:47:16.909Z,19.70
2022-11-12T00:49:43.662Z,19.70
2022-11-12T00:52:10.366Z,19.70
2022-11-12T00:54:38.689Z,19.70
2022-11-12T00:57:05.404Z,19.70
2022-11-12T00:59:32.119Z,19.60
2022-11-12T01:01:58.862Z,19.70
2022-11-12T01:04:25.624Z,19.60
2022-11-12T01:06:52.417Z,19.60
2022-11-12T01:09:19.195Z,19.60
2022-11-12T01:11:45.913Z,19.70
2022-11-12T01:14:12.798Z,19.60
2022-11-12T01:16:40.432Z,19.60
2022-11-12T01:19:11.189Z,19.60
2022-11-12T01:21:41.447Z,19.60
2022-11-12T01:24:09.669Z,19.60
2022-11-12T01:26:36.702Z,19.60
2022-11-12T01:29:03.737Z,19.60
2022-11-12T01:31:32.428Z,19.60
2022-11-12T01:34:01.047Z,19.60
2022-11-12T01:36:28.328Z,19.60
2022-11-12T01:38:55.585Z,19.60
2022-11-12T01:41:27.297Z,19.60
2022-11-12T01:44:32.776Z,19.60
2022-11-12T01:47:20.483Z,19.60
2022-11-12T01:49:56.827Z,19.60
2022-11-12T01:52:37.239Z,19.60
2022-11-12T01:55:31.404Z,19.60
2022-11-12T01:58:07.290Z,19.60
2022-11-12T02:00:34.014Z,19.60
2022-11-12T02:03:01.635Z,19.60
2022-11-12T02:05:28.876Z,19.60
2022-11-12T02:07:55.677Z,19.60
2022-11-12T02:10:22.410Z,19.50
2022-11-12T02:13:08.020Z,19.60
2022-11-12T02:15:34.816Z,19.50
2022-11-12T02:18:01.546Z,19.60
2022-11-12T02:20:28.248Z,19.50
2022-11-12T02:22:54.939Z,19.50
2022-11-12T02:25:23.369Z,19.60
2022-11-12T02:27:51.874Z,19.60
2022-11-12T02:30:19.565Z,19.60
2022-11-12T02:32:46.272Z,19.60
2022-11-12T02:35:14.215Z,19.60
2022-11-12T02:37:40.935Z,19.50
2022-11-12T02:40:08.677Z,19.50
2022-11-12T02:42:35.427Z,19.50
2022-11-12T02:45:02.185Z,19.60
2022-11-12T02:47:28.889Z,19.50
2022-11-12T02:49:55.608Z,19.50
2022-11-12T02:52:24.779Z,19.50
2022-11-12T02:54:51.568Z,19.50
2022-11-12T02:57:18.323Z,19.50
2022-11-12T02:59:45.931Z,19.50
2022-11-12T03:02:12.897Z,19.50
2022-11-12T03:04:43.180Z,19.50
2022-11-12T03:07:12.192Z,19.50
2022-11-12T03:09:38.920Z,19.50
2022-11-12T03:12:05.902Z,19.50
2022-11-12T03:14:32.654Z,19.50
2022-11-12T03:16:59.369Z,19.50
2022-11-12T03:19:26.074Z,19.50
2022-11-12T03:21:52.814Z,19.50
2022-11-12T03:24:19.529Z,19.50
2022-11-12T03:26:47.178Z,19.50
2022-11-12T03:29:13.945Z,19.50
2022-11-12T03:31:40.653Z,19.50
2022-11-12T03:34:07.394Z,19.50
2022-11-12T03:36:34.122Z,19.50
2022-11-12T03:39:00.896Z,19.50
2022-11-12T03:41:27.637Z,19.50
2022-11-12T03:43:54.377Z,19.50
2022-11-12T03:46:21.119Z,19.50
2022-11-12T03:48:48.831Z,19.50
2022-11-12T03:51:16.698Z,19.50
2022-11-12T03:53:43.536Z,19.50
2022-11-12T03:56:10.315Z,19.40
2022-11-12T03:58:37.011Z,19.50
2022-11-12T04:01:03.854Z,19.50
2022-11-12T04:03:30.583Z,19.50
2022-11-12T04:06:16.027Z,19.50
2022-11-12T04:08:42.789Z,19.50
2022-11-12T04:11:12.869Z,19.50
2022-11-12T04:13:42.034Z,19.50
2022-11-12T04:16:29.733Z,19.50
2022-11-12T04:19:16.471Z,19.50
2022-11-12T04:21:56.805Z,19.50
2022-11-12T04:24:46.041Z,19.50
2022-11-12T04:27:20.082Z,19.50
2022-11-12T04:30:05.638Z,19.50
2022-11-12T04:32:33.276Z,19.50
2022-11-12T04:35:00.169Z,19.40
2022-11-12T04:37:28.067Z,19.50
2022-11-12T04:39:54.875Z,19.50
2022-11-12T04:42:40.027Z,19.50
2022-11-12T04:45:11.201Z,19.50
2022-11-12T04:47:39.519Z,19.40
2022-11-12T04:50:08.956Z,19.50
2022-11-12T04:52:35.664Z,19.50
2022-11-12T04:55:03.321Z,19.50
2022-11-12T04:57:30.043Z,19.40
2022-11-12T04:59:56.855Z,19.40
2022-11-12T05:02:23.662Z,19.40
2022-11-12T05:04:51.402Z,19.40
2022-11-12T05:07:18.268Z,19.40
2022-11-12T05:09:45.100Z,19.40
2022-11-12T05:12:11.879Z,19.40
2022-11-12T05:14:38.658Z,19.40
2022-11-12T05:17:05.610Z,19.40
2022-11-12T05:19:32.419Z,19.40
2022-11-12T05:22:05.284Z,19.40
2022-11-12T05:24:42.980Z,19.40
2022-11-12T05:27:14.982Z,19.40
2022-11-12T05:29:41.713Z,19.40
2022-11-12T05:32:09.058Z,19.40
2022-11-12T05:34:35.848Z,19.40
2022-11-12T05:37:03.014Z,19.40
2022-11-12T05:39:29.794Z,19.40
2022-11-12T05:42:13.778Z,19.40
2022-11-12T05:44:40.987Z,19.40
2022-11-12T05:47:07.822Z,19.40
2022-11-12T05:49:36.369Z,19.40
2022-11-12T05:52:03.150Z,19.40
2022-11-12T05:54:29.870Z,19.40
2022-11-12T05:56:56.618Z,19.40
2022-11-12T05:59:24.769Z,19.40
2022-11-12T06:01:52.098Z,19.40
2022-11-12T06:04:19.498Z,19.40
2022-11-12T06:06:46.263Z,19.40
2022-11-12T06:09:13.098Z,19.40
2022-11-12T06:11:39.852Z,19.40
2022-11-12T06:14:06.645Z,19.50
2022-11-12T06:16:33.405Z,19.50
2022-11-12T06:19:00.265Z,19.40
2022-11-12T06:21:27.924Z,19.40
2022-11-12T06:23:57.119Z,19.50
2022-11-12T06:26:25.402Z,19.40
2022-11-12T06:28:52.444Z,19.40
2022-11-12T06:31:19.346Z,19.50
2022-11-12T06:33:46.276Z,19.40
2022-11-12T06:36:14.818Z,19.40
2022-11-12T06:38:41.855Z,19.50
2022-11-12T06:41:09.913Z,19.40
2022-11-12T06:43:36.826Z,19.50
2022-11-12T06:46:14.385Z,19.40
2022-11-12T06:48:41.356Z,19.40
2022-11-12T06:51:18.699Z,19.40
2022-11-12T06:53:45.678Z,19.40
2022-11-12T06:56:12.645Z,19.40
2022-11-12T06:58:39.614Z,19.50
2022-11-12T07:01:11.499Z,19.50
2022-11-12T07:03:39.596Z,19.40
2022-11-12T07:06:11.207Z,19.40
2022-11-12T07:08:38.072Z,19.40
2022-11-12T07:11:05.435Z,19.40
2022-11-12T07:13:33.406Z,19.40
2022-11-12T07:16:00.624Z,19.40
2022-11-12T07:18:28.308Z,19.40
2022-11-12T07:21:02.218Z,19.40
2022-11-12T07:23:29.962Z,19.40
2022-11-12T07:26:01.910Z,19.50
2022-11-12T07:28:29.039Z,19.40
2022-11-12T07:31:00.366Z,19.40
2022-11-12T07:33:27.409Z,19.40
2022-11-12T07:36:13.629Z,19.50
2022-11-12T07:38:41.626Z,19.50
2022-11-12T07:41:13.013Z,19.50
2022-11-12T07:43:40.189Z,19.40
2022-11-12T07:46:13.594Z,19.40
2022-11-12T07:48:40.693Z,19.40
2022-11-12T07:51:21.019Z,19.40
2022-11-12T07:53:48.321Z,19.40
2022-11-12T07:56:16.947Z,19.40
2022-11-12T07:58:43.895Z,19.40
2022-11-12T08:01:12.592Z,19.50
2022-11-12T08:03:39.388Z,19.40
2022-11-12T08:06:06.436Z,19.40
2022-11-12T08:08:33.224Z,19.40
2022-11-12T08:11:00.029Z,19.40
2022-11-12T08:13:26.785Z,19.40
2022-11-12T08:15:56.871Z,19.40
2022-11-12T08:18:25.377Z,19.40
2022-11-12T08:20:53.257Z,19.40
2022-11-12T08:23:19.964Z,19.40
2022-11-12T08:25:46.734Z,19.40
2022-11-12T08:28:13.477Z,19.40
2022-11-12T08:30:40.215Z,19.40
2022-11-12T08:33:07.311Z,19.40
2022-11-12T08:35:34.228Z,19.40
2022-11-12T08:38:02.696Z,19.40
2022-11-12T08:40:30.388Z,19.40
2022-11-12T08:43:00.932Z,19.40
2022-11-12T08:45:27.995Z,19.40
2022-11-12T08:47:59.506Z,19.40
2022-11-12T08:50:26.637Z,19.40
2022-11-12T08:52:59.006Z,19.40
2022-11-12T08:55:25.717Z,19.40
2022-11-12T08:57:58.685Z,19.40
2022-11-12T09:00:25.683Z,19.50
2022-11-12T09:02:53.234Z,19.50
2022-11-12T09:05:20.526Z,19.50
2022-11-12T09:07:50.395Z,19.50
2022-11-12T09:10:18.220Z,19.40
2022-11-12T09:12:44.959Z,19.50
2022-11-12T09:18:00.073Z,19.60
2022-11-12T09:20:30.503Z,19.60
2022-11-12T09:23:01.396Z,19.60
2022-11-12T09:25:28.433Z,19.60
2022-11-12T09:27:56.913Z,19.60
2022-11-12T09:30:26.633Z,19.60
2022-11-12T09:32:58.326Z,19.60
2022-11-12T09:38:04.661Z,19.60
2022-11-12T09:40:55.306Z,19.60
2022-11-12T09:43:33.636Z,19.60
2022-11-12T09:46:28.306Z,19.70
2022-11-12T09:49:20.425Z,19.70
2022-11-12T09:51:54.140Z,19.70
2022-11-12T09:54:32.201Z,19.70
2022-11-12T09:56:59.214Z,19.70
2022-11-12T09:59:30.526Z,19.70
2022-11-12T10:02:05.378Z,19.70
2022-11-12T10:04:37.706Z,19.70
2022-11-12T10:07:13.672Z,19.70
2022-11-12T10:09:53.369Z,19.70
2022-11-12T10:13:08.594Z,19.70
2022-11-12T10:16:31.131Z,19.70
2022-11-12T10:19:25.897Z,19.70
2022-11-12T10:21:58.445Z,19.70
2022-11-12T10:24:26.595Z,19.70
2022-11-12T10:26:54.476Z,19.70
2022-11-12T10:29:28.555Z,19.70
2022-11-12T10:31:55.999Z,19.70
2022-11-12T10:34:24.160Z,19.70
2022-11-12T10:36:56.842Z,19.80
2022-11-12T10:39:43.145Z,19.80
2022-11-12T10:42:14.155Z,19.80
2022-11-12T10:44:42.430Z,19.80
2022-11-12T10:47:31.944Z,19.80
2022-11-12T10:50:04.825Z,19.80
2022-11-12T10:52:31.894Z,19.80
2022-11-12T10:55:16.159Z,19.90
2022-11-12T10:57:42.885Z,19.90
2022-11-12T11:00:12.661Z,19.90
2022-11-12T11:02:54.291Z,19.90
2022-11-12T11:05:30.874Z,19.90
2022-11-12T11:07:57.860Z,19.90
2022-11-12T11:10:28.595Z,19.90
2022-11-12T11:13:18.876Z,19.90
2022-11-12T11:16:04.201Z,20.00
2022-11-12T11:18:32.826Z,20.00
2022-11-12T11:21:14.872Z,20.00
2022-11-12T11:23:56.464Z,20.00
2022-11-12T11:26:46.511Z,20.00
2022-11-12T11:29:26.381Z,20.00
2022-11-12T11:31:59.894Z,20.00
2022-11-12T11:34:57.360Z,20.00
2022-11-12T11:37:27.146Z,20.00
2022-11-12T11:40:18.388Z,20.00
2022-11-12T11:42:57.250Z,20.10
2022-11-12T11:45:28.199Z,20.10
2022-11-12T11:48:02.704Z,20.10
2022-11-12T11:50:29.945Z,20.10
2022-11-12T11:53:17.897Z,20.10
2022-11-12T11:55:48.341Z,20.10
2022-11-12T11:58:45.258Z,20.10
2022-11-12T12:01:34.280Z,20.10
2022-11-12T12:04:32.414Z,20.10
2022-11-12T12:07:25.290Z,20.10
2022-11-12T12:10:19.362Z,20.10
2022-11-12T12:13:00.586Z,20.10
2022-11-12T12:15:36.958Z,20.10
2022-11-12T12:18:36.377Z,20.10
2022-11-12T12:21:11.548Z,20.10
2022-11-12T12:23:40.842Z,20.10
2022-11-12T12:26:22.040Z,20.10
2022-11-12T12:28:56.938Z,20.10
2022-11-12T12:31:29.612Z,20.10
2022-11-12T12:33:59.164Z,20.10
2022-11-12T12:36:47.526Z,20.20
2022-11-12T12:39:18.475Z,20.10
2022-11-12T12:42:03.674Z,20.10
2022-11-12T12:44:54.414Z,20.10
2022-11-12T12:47:21.653Z,20.10
2022-11-12T12:49:48.379Z,20.10
2022-11-12T12:52:17.908Z,20.10
2022-11-12T12:54:50.776Z,20.20
2022-11-12T12:57:27.447Z,20.20
2022-11-12T13:00:32.192Z,20.20
2022-11-12T13:02:59.018Z,20.20
2022-11-12T13:05:36.253Z,20.10
2022-11-12T13:08:13.492Z,19.90
2022-11-12T13:10:41.358Z,19.80
2022-11-12T13:13:20.000Z,19.80
2022-11-12T13:15:56.968Z,19.80
2022-11-12T13:18:50.063Z,19.80
2022-11-12T13:21:17.990Z,19.80
2022-11-12T13:24:08.595Z,19.80
2022-11-12T13:26:48.718Z,19.80
2022-11-12T13:29:28.108Z,19.80
2022-11-12T13:32:32.614Z,19.90
2022-11-12T13:35:17.909Z,19.80
2022-11-12T13:37:45.362Z,19.90
2022-11-12T13:40:26.893Z,19.90
2022-11-12T13:42:53.808Z,19.90
2022-11-12T13:45:24.586Z,19.90
2022-11-12T13:47:51.428Z,19.90
2022-11-12T13:50:22.514Z,19.90
2022-11-12T13:52:49.478Z,19.90
2022-11-12T13:55:17.825Z,19.90
2022-11-12T13:57:51.323Z,19.90
2022-11-12T14:00:18.079Z,19.90
2022-11-12T14:02:45.894Z,19.90
2022-11-12T14:05:16.973Z,19.90
2022-11-12T14:07:50.427Z,20.00
2022-11-12T14:10:57.262Z,19.90
2022-11-12T14:13:35.252Z,20.00
2022-11-12T14:16:29.925Z,20.00
2022-11-12T14:19:28.537Z,19.90
2022-11-12T14:22:15.379Z,19.90
2022-11-12T14:24:42.205Z,19.90
2022-11-12T14:27:28.805Z,19.90
2022-11-12T14:30:08.135Z,20.00
2022-11-12T14:32:38.299Z,20.00
2022-11-12T14:35:28.518Z,20.00
2022-11-12T14:37:58.788Z,20.00
2022-11-12T14:40:28.452Z,20.00
2022-11-12T14:42:55.176Z,20.00
2022-11-12T14:45:22.273Z,20.00
2022-11-12T14:47:50.319Z,20.10
2022-11-12T14:50:23.737Z,20.10
2022-11-12T14:52:56.991Z,20.10
2022-11-12T14:55:30.564Z,20.00
2022-11-12T14:57:59.399Z,20.00
2022-11-12T15:00:32.044Z,20.00
2022-11-12T15:03:00.153Z,20.10
2022-11-12T15:05:28.574Z,20.10
2022-11-12T15:08:02.503Z,20.10
2022-11-12T15:10:40.141Z,20.10
2022-11-12T15:13:10.577Z,20.10
2022-11-12T15:16:01.232Z,20.10
2022-11-12T15:18:30.431Z,20.00
2022-11-12T15:21:12.170Z,20.10
2022-11-12T15:23:49.047Z,20.10
2022-11-12T15:26:25.107Z,20.10
2022-11-12T15:29:02.650Z,20.10
2022-11-12T15:31:29.387Z,20.10
2022-11-12T15:33:57.755Z,20.10
2022-11-12T15:36:24.647Z,20.10
2022-11-12T15:38:54.268Z,20.10
2022-11-12T15:41:29.403Z,20.10
2022-11-12T15:43:57.566Z,20.10
2022-11-12T15:46:24.294Z,20.10
2022-11-12T15:48:55.847Z,20.10
2022-11-12T15:51:23.598Z,20.10
2022-11-12T15:53:50.302Z,20.10
2022-11-12T15:56:18.267Z,20.10
2022-11-12T15:58:45.083Z,20.10
2022-11-12T16:01:11.877Z,20.10
2022-11-12T16:03:38.908Z,20.10
2022-11-12T16:06:09.247Z,20.10
2022-11-12T16:08:36.300Z,20.10
2022-11-12T16:11:03.140Z,20.10
2022-11-12T16:13:31.386Z,20.10
2022-11-12T16:15:59.115Z,20.10
2022-11-12T16:18:26.650Z,20.10
2022-11-12T16:20:54.192Z,20.10
2022-11-12T16:23:20.919Z,20.10
2022-11-12T16:25:47.665Z,20.10
2022-11-12T16:28:15.556Z,20.10
2022-11-12T16:30:42.439Z,20.10
2022-11-12T16:33:12.486Z,20.00
2022-11-12T16:35:39.225Z,20.10
2022-11-12T16:38:12.419Z,20.10
2022-11-12T16:40:40.274Z,20.00
2022-11-12T16:43:07.054Z,20.10
2022-11-12T16:45:39.077Z,20.10
2022-11-12T16:48:16.790Z,20.10
2022-11-12T16:50:43.633Z,20.10
2022-11-12T16:53:10.344Z,20.10
2022-11-12T16:55:37.099Z,20.10
2022-11-12T16:58:03.829Z,20.10
2022-11-12T17:00:30.565Z,20.10
2022-11-12T17:02:58.637Z,20.20
2022-11-12T17:05:26.059Z,20.10
2022-11-12T17:07:58.002Z,20.20
2022-11-12T17:10:25.397Z,20.10
2022-11-12T17:12:52.759Z,20.10
2022-11-12T17:15:19.551Z,20.10
2022-11-12T17:17:46.262Z,20.10
2022-11-12T17:20:12.999Z,20.20
2022-11-12T17:22:39.714Z,20.20
2022-11-12T17:25:07.017Z,20.20
2022-11-12T17:27:33.781Z,20.20
2022-11-12T17:30:00.527Z,20.20
2022-11-12T17:32:28.833Z,20.20
2022-11-12T17:34:55.555Z,20.10
2022-11-12T17:37:22.274Z,20.20
2022-11-12T17:39:49.281Z,20.10
2022-11-12T17:42:15.997Z,20.10
2022-11-12T17:44:42.828Z,20.10
2022-11-12T17:47:09.534Z,20.10
2022-11-12T17:49:36.241Z,20.10
2022-11-12T17:52:03.054Z,20.20
2022-11-12T17:54:29.839Z,20.10
2022-11-12T17:56:58.056Z,20.20
2022-11-12T17:59:24.851Z,20.20
2022-11-12T18:01:51.618Z,20.10
2022-11-12T18:04:18.347Z,20.10
2022-11-12T18:06:45.148Z,20.20
2022-11-12T18:09:15.541Z,20.20
2022-11-12T18:11:51.157Z,20.10
2022-11-12T18:14:17.896Z,20.10
2022-11-12T18:16:44.720Z,20.10
2022-11-12T18:19:12.477Z,20.10
2022-11-12T18:21:39.690Z,20.10
2022-11-12T18:24:07.073Z,20.10
2022-11-12T18:26:33.850Z,20.10
2022-11-12T18:29:00.675Z,20.10
2022-11-12T18:31:29.316Z,20.10
2022-11-12T18:33:56.212Z,20.10
2022-11-12T18:36:24.729Z,20.10
2022-11-12T18:38:52.582Z,20.10
2022-11-12T18:41:22.420Z,20.10
2022-11-12T18:43:49.204Z,20.10
2022-11-12T18:46:15.949Z,20.10
2022-11-12T18:48:42.730Z,20.10
2022-11-12T18:51:11.381Z,20.10
2022-11-12T18:53:38.781Z,20.10
2022-11-12T18:56:07.616Z,20.00
2022-11-12T18:58:35.512Z,20.10
2022-11-12T19:01:07.436Z,20.10
2022-11-12T19:03:34.782Z,20.00
2022-11-12T19:06:02.439Z,20.00
2022-11-12T19:08:30.705Z,20.00
2022-11-12T19:11:06.070Z,20.00
2022-11-12T19:13:34.047Z,20.00
2022-11-12T19:16:27.494Z,20.00
2022-11-12T19:18:54.315Z,20.00
2022-11-12T19:21:25.108Z,20.00
2022-11-12T19:23:54.587Z,20.00
2022-11-12T19:26:22.330Z,20.00
2022-11-12T19:28:49.529Z,19.90
2022-11-12T19:31:18.133Z,19.90
2022-11-12T19:33:45.228Z,20.00
2022-11-12T19:36:15.858Z,19.90
2022-11-12T19:38:43.176Z,19.90
2022-11-12T19:41:19.025Z,19.90
2022-11-12T19:43:46.825Z,19.90
2022-11-12T19:46:14.465Z,19.90
2022-11-12T19:48:41.343Z,20.00
2022-11-12T19:51:08.950Z,20.00
2022-11-12T19:53:46.577Z,20.00
2022-11-12T19:56:16.921Z,20.00
2022-11-12T19:58:47.217Z,20.00
2022-11-12T20:01:16.198Z,20.00
2022-11-12T20:03:42.997Z,20.00
2022-11-12T20:06:11.964Z,20.00
2022-11-12T20:08:39.021Z,20.00
2022-11-12T20:11:06.002Z,20.00
2022-11-12T20:13:33.730Z,20.00
2022-11-12T20:16:06.091Z,20.00
2022-11-12T20:18:34.071Z,20.00
2022-11-12T20:21:03.633Z,20.00
2022-11-12T20:23:32.498Z,20.00
2022-11-12T20:26:10.008Z,20.00
2022-11-12T20:28:37.444Z,20.00
2022-11-12T20:31:12.169Z,20.00
2022-11-12T20:33:42.490Z,20.00
2022-11-12T20:36:13.553Z,20.00
2022-11-12T20:38:41.567Z,20.00
2022-11-12T20:41:11.218Z,20.00
2022-11-12T20:43:37.977Z,20.00
2022-11-12T20:46:04.746Z,20.00
2022-11-12T20:48:33.561Z,19.90
2022-11-12T20:51:25.052Z,19.90
2022-11-12T20:53:59.835Z,19.90
2022-11-12T20:56:29.122Z,19.90
2022-11-12T20:58:56.081Z,19.90
2022-11-12T21:01:23.701Z,19.90
2022-11-12T21:03:50.723Z,20.00
2022-11-12T21:06:19.953Z,19.90
2022-11-12T21:08:46.960Z,19.90
2022-11-12T21:11:15.140Z,19.90
2022-11-12T21:13:42.060Z,19.90
2022-11-12T21:16:09.064Z,19.90
2022-11-12T21:18:36.270Z,19.90
2022-11-12T21:21:08.646Z,19.90
2022-11-12T21:23:37.037Z,19.90
2022-11-12T21:26:05.431Z,19.90
2022-11-12T21:28:34.982Z,19.90
2022-11-12T21:31:06.132Z,19.90
2022-11-12T21:33:34.860Z,19.80
2022-11-12T21:36:03.319Z,19.90
2022-11-12T21:38:30.393Z,19.90
2022-11-12T21:41:11.287Z,19.80
2022-11-12T21:43:39.001Z,19.80
2022-11-12T21:46:15.328Z,19.80
2022-11-12T21:48:42.607Z,19.80
2022-11-12T21:51:14.041Z,19.80
2022-11-12T21:53:41.113Z,19.80
2022-11-12T21:56:12.632Z,19.80
2022-11-12T21:58:39.730Z,19.80
2022-11-12T22:01:13.935Z,19.80
2022-11-12T22:03:40.817Z,19.80
2022-11-12T22:06:07.888Z,19.80
2022-11-12T22:08:37.155Z,19.80
2022-11-12T22:11:07.216Z,19.70
2022-11-12T22:13:34.608Z,19.70
2022-11-12T22:16:10.503Z,19.70
2022-11-12T22:18:37.851Z,19.70
2022-11-12T22:21:12.021Z,19.70
2022-11-12T22:23:38.967Z,19.70
2022-11-12T22:26:09.873Z,19.70
2022-11-12T22:28:38.100Z,19.70
2022-11-12T22:31:06.479Z,19.70
2022-11-12T22:33:33.546Z,19.70
2022-11-12T22:36:04.560Z,19.70
2022-11-12T22:38:38.727Z,19.70
2022-11-12T22:41:08.472Z,19.70
2022-11-12T22:43:37.683Z,19.70
2022-11-12T22:46:07.145Z,19.70
2022-11-12T22:48:34.651Z,19.60
2022-11-12T22:51:02.435Z,19.60
2022-11-12T22:53:29.285Z,19.60
2022-11-12T22:55:55.990Z,19.60
2022-11-12T22:58:22.734Z,19.60
2022-11-12T23:00:49.542Z,19.60
2022-11-12T23:03:16.247Z,19.60
2022-11-12T23:05:42.952Z,19.60
2022-11-12T23:08:10.107Z,19.60
2022-11-12T23:10:39.405Z,19.60
2022-11-12T23:13:10.544Z,19.60
2022-11-12T23:15:37.258Z,19.60
2022-11-12T23:18:03.980Z,19.60
2022-11-12T23:20:31.311Z,19.60
2022-11-12T23:22:58.029Z,19.50
2022-11-12T23:25:24.741Z,19.60
2022-11-12T23:27:51.423Z,19.60
2022-11-12T23:30:18.160Z,19.50
2022-11-12T23:32:44.879Z,19.50
2022-11-12T23:35:12.332Z,19.50
2022-11-12T23:37:40.263Z,19.50
2022-11-12T23:40:07.906Z,19.50
2022-11-12T23:42:34.642Z,19.50
2022-11-12T23:45:01.361Z,19.50
2022-11-12T23:47:28.074Z,19.50
2022-11-12T23:49:54.799Z,19.50
2022-11-12T23:52:21.500Z,19.50
2022-11-12T23:54:48.216Z,19.50
2022-11-12T23:57:14.959Z,19.50
2022-11-12T23:59:42.880Z,19.50
